sensor_id;sensor_type;location;lat;lon;timestamp;pressure;altitude;pressure_sealevel;temperature;humidity
42003;BME280;27693;50.506;30.832;2023-04-25T00:00:08;99237.76;;;11.00;62.45
42003;BME280;27693;50.506;30.832;2023-04-25T00:01:15;99245.56;;;11.00;62.17
42003;BME280;27693;50.506;30.832;2023-04-25T00:02:18;99238.86;;;10.96;62.41
42003;BME280;27693;50.506;30.832;2023-04-25T00:03:21;99244.66;;;10.85;63.12
42003;BME280;27693;50.506;30.832;2023-04-25T00:04:24;99238.78;;;10.82;63.25
42003;BME280;27693;50.506;30.832;2023-04-25T00:05:29;99241.63;;;10.77;63.63
42003;BME280;27693;50.506;30.832;2023-04-25T00:06:34;99242.78;;;10.71;63.58
42003;BME280;27693;50.506;30.832;2023-04-25T00:07:38;99242.97;;;10.68;63.49
42003;BME280;27693;50.506;30.832;2023-04-25T00:08:41;99239.60;;;10.66;63.74
42003;BME280;27693;50.506;30.832;2023-04-25T00:09:44;99242.88;;;10.70;63.75
42003;BME280;27693;50.506;30.832;2023-04-25T00:10:47;99238.44;;;10.72;63.43
42003;BME280;27693;50.506;30.832;2023-04-25T00:11:50;99234.06;;;10.73;63.44
42003;BME280;27693;50.506;30.832;2023-04-25T00:12:52;99230.73;;;10.70;63.59
42003;BME280;27693;50.506;30.832;2023-04-25T00:13:55;99239.27;;;10.73;63.71
42003;BME280;27693;50.506;30.832;2023-04-25T00:14:57;99231.46;;;10.73;63.22
42003;BME280;27693;50.506;30.832;2023-04-25T00:15:59;99244.32;;;10.76;63.51
42003;BME280;27693;50.506;30.832;2023-04-25T00:17:02;99242.64;;;10.75;63.69
42003;BME280;27693;50.506;30.832;2023-04-25T00:18:08;99239.11;;;10.76;63.71
42003;BME280;27693;50.506;30.832;2023-04-25T00:19:11;99241.63;;;10.77;63.41
42003;BME280;27693;50.506;30.832;2023-04-25T00:20:16;99237.25;;;10.78;63.56
42003;BME280;27693;50.506;30.832;2023-04-25T00:21:19;99233.91;;;10.76;63.96
42003;BME280;27693;50.506;30.832;2023-04-25T00:22:21;99235.66;;;10.75;63.96
42003;BME280;27693;50.506;30.832;2023-04-25T00:23:24;99234.73;;;10.76;63.94
42003;BME280;27693;50.506;30.832;2023-04-25T00:24:26;99236.61;;;10.74;64.13
42003;BME280;27693;50.506;30.832;2023-04-25T00:25:29;99237.52;;;10.73;64.21
42003;BME280;27693;50.506;30.832;2023-04-25T00:26:31;99230.64;;;10.72;64.11
42003;BME280;27693;50.506;30.832;2023-04-25T00:27:34;99234.98;;;10.71;63.98
42003;BME280;27693;50.506;30.832;2023-04-25T00:28:37;99237.00;;;10.66;64.49
42003;BME280;27693;50.506;30.832;2023-04-25T00:29:40;99222.31;;;10.65;64.39
42003;BME280;27693;50.506;30.832;2023-04-25T00:30:43;99222.49;;;10.62;64.36
42003;BME280;27693;50.506;30.832;2023-04-25T00:31:45;99223.41;;;10.61;64.43
42003;BME280;27693;50.506;30.832;2023-04-25T00:32:47;99220.81;;;10.61;64.42
42003;BME280;27693;50.506;30.832;2023-04-25T00:33:51;99217.63;;;10.56;64.89
42003;BME280;27693;50.506;30.832;2023-04-25T00:34:54;99222.06;;;10.54;64.96
42003;BME280;27693;50.506;30.832;2023-04-25T00:35:57;99219.37;;;10.55;64.82
42003;BME280;27693;50.506;30.832;2023-04-25T00:37:01;99214.41;;;10.51;65.23
42003;BME280;27693;50.506;30.832;2023-04-25T00:38:04;99217.01;;;10.51;65.01
42003;BME280;27693;50.506;30.832;2023-04-25T00:39:06;99215.36;;;10.50;65.02
42003;BME280;27693;50.506;30.832;2023-04-25T00:40:09;99208.29;;;10.52;65.02
42003;BME280;27693;50.506;30.832;2023-04-25T00:41:12;99210.73;;;10.55;64.96
42003;BME280;27693;50.506;30.832;2023-04-25T00:42:15;99215.17;;;10.53;64.94
42003;BME280;27693;50.506;30.832;2023-04-25T00:43:18;99216.70;;;10.57;64.66
42003;BME280;27693;50.506;30.832;2023-04-25T00:44:20;99216.61;;;10.59;64.67
42003;BME280;27693;50.506;30.832;2023-04-25T00:45:28;99217.63;;;10.56;64.40
42003;BME280;27693;50.506;30.832;2023-04-25T00:46:31;99215.76;;;10.58;64.29
42003;BME280;27693;50.506;30.832;2023-04-25T00:47:35;99214.11;;;10.57;64.39
42003;BME280;27693;50.506;30.832;2023-04-25T00:48:38;99215.70;;;10.60;64.22
42003;BME280;27693;50.506;30.832;2023-04-25T00:49:40;99215.61;;;10.61;64.29
42003;BME280;27693;50.506;30.832;2023-04-25T00:50:48;99214.11;;;10.57;64.83
42003;BME280;27693;50.506;30.832;2023-04-25T00:51:49;99214.11;;;10.57;64.76
42003;BME280;27693;50.506;30.832;2023-04-25T00:52:52;99220.96;;;10.58;64.85
42003;BME280;27693;50.506;30.832;2023-04-25T00:53:55;99217.63;;;10.56;64.97
42003;BME280;27693;50.506;30.832;2023-04-25T00:54:57;99216.70;;;10.57;64.96
42003;BME280;27693;50.506;30.832;2023-04-25T00:56:00;99215.76;;;10.58;64.79
42003;BME280;27693;50.506;30.832;2023-04-25T00:57:03;99206.30;;;10.57;65.04
42003;BME280;27693;50.506;30.832;2023-04-25T00:58:06;99212.42;;;10.56;64.96
42003;BME280;27693;50.506;30.832;2023-04-25T00:59:09;99212.58;;;10.53;65.08
42003;BME280;27693;50.506;30.832;2023-04-25T01:00:15;99214.41;;;10.51;64.98
42003;BME280;27693;50.506;30.832;2023-04-25T01:01:19;99211.66;;;10.54;64.59
42003;BME280;27693;50.506;30.832;2023-04-25T01:02:21;99215.08;;;10.54;64.71
42003;BME280;27693;50.506;30.832;2023-04-25T01:03:23;99216.86;;;10.54;65.00
42003;BME280;27693;50.506;30.832;2023-04-25T01:04:27;99222.15;;;10.52;64.97
42003;BME280;27693;50.506;30.832;2023-04-25T01:05:31;99222.21;;;10.51;65.27
42003;BME280;27693;50.506;30.832;2023-04-25T01:06:34;99223.06;;;10.51;64.94
42003;BME280;27693;50.506;30.832;2023-04-25T01:07:37;99218.69;;;10.52;65.14
42003;BME280;27693;50.506;30.832;2023-04-25T01:08:40;99214.59;;;10.48;65.90
42003;BME280;27693;50.506;30.832;2023-04-25T01:09:42;99213.05;;;10.44;66.09
42003;BME280;27693;50.506;30.832;2023-04-25T01:10:44;99221.80;;;10.43;65.62
42003;BME280;27693;50.506;30.832;2023-04-25T01:11:47;99215.07;;;10.38;66.08
42003;BME280;27693;50.506;30.832;2023-04-25T01:12:49;99217.20;;;10.30;66.68
42003;BME280;27693;50.506;30.832;2023-04-25T01:13:52;99212.95;;;10.29;66.96
42003;BME280;27693;50.506;30.832;2023-04-25T01:14:55;99208.48;;;10.31;66.34
42003;BME280;27693;50.506;30.832;2023-04-25T01:15:59;99199.94;;;10.29;66.89
42003;BME280;27693;50.506;30.832;2023-04-25T01:17:02;99202.69;;;10.26;67.42
42003;BME280;27693;50.506;30.832;2023-04-25T01:18:05;99208.04;;;10.23;67.64
42003;BME280;27693;50.506;30.832;2023-04-25T01:19:09;99206.53;;;10.19;68.20
42003;BME280;27693;50.506;30.832;2023-04-25T01:20:15;99206.53;;;10.19;68.20
42003;BME280;27693;50.506;30.832;2023-04-25T01:21:18;99199.06;;;10.13;68.03
42003;BME280;27693;50.506;30.832;2023-04-25T01:22:22;99201.75;;;10.11;68.05
42003;BME280;27693;50.506;30.832;2023-04-25T01:23:26;99200.66;;;10.15;67.43
42003;BME280;27693;50.506;30.832;2023-04-25T01:24:28;99203.94;;;10.19;67.24
42003;BME280;27693;50.506;30.832;2023-04-25T01:25:31;99202.84;;;10.23;67.23
42003;BME280;27693;50.506;30.832;2023-04-25T01:26:35;99205.44;;;10.23;67.73
42003;BME280;27693;50.506;30.832;2023-04-25T01:27:38;99204.61;;;10.22;67.36
42003;BME280;27693;50.506;30.832;2023-04-25T01:28:41;99202.78;;;10.25;67.08
42003;BME280;27693;50.506;30.832;2023-04-25T01:29:45;99205.44;;;10.23;67.68
42003;BME280;27693;50.506;30.832;2023-04-25T01:30:48;99207.13;;;10.24;67.80
42003;BME280;27693;50.506;30.832;2023-04-25T01:31:52;99206.30;;;10.23;68.00
42003;BME280;27693;50.506;30.832;2023-04-25T01:32:56;99206.30;;;10.23;68.00
42003;BME280;27693;50.506;30.832;2023-04-25T01:33:59;99205.30;;;10.26;67.91
42003;BME280;27693;50.506;30.832;2023-04-25T01:35:08;99203.61;;;10.25;68.03
42003;BME280;27693;50.506;30.832;2023-04-25T01:36:12;99203.61;;;10.25;68.03
42003;BME280;27693;50.506;30.832;2023-04-25T01:37:16;99195.66;;;10.28;67.46
42003;BME280;27693;50.506;30.832;2023-04-25T01:38:20;99200.86;;;10.28;67.90
42003;BME280;27693;50.506;30.832;2023-04-25T01:39:22;99189.55;;;10.29;67.46
42003;BME280;27693;50.506;30.832;2023-04-25T01:40:27;99190.38;;;10.30;67.83
42003;BME280;27693;50.506;30.832;2023-04-25T01:41:29;99191.20;;;10.30;67.48
42003;BME280;27693;50.506;30.832;2023-04-25T01:42:33;99192.14;;;10.29;67.53
42003;BME280;27693;50.506;30.832;2023-04-25T01:43:35;99195.57;;;10.30;67.55
42003;BME280;27693;50.506;30.832;2023-04-25T01:44:38;99193.06;;;10.28;68.02
42003;BME280;27693;50.506;30.832;2023-04-25T01:45:41;99195.66;;;10.28;67.84
42003;BME280;27693;50.506;30.832;2023-04-25T01:46:45;99193.39;;;10.22;68.68
42003;BME280;27693;50.506;30.832;2023-04-25T01:47:48;99190.79;;;10.22;68.22
42003;BME280;27693;50.506;30.832;2023-04-25T01:48:52;99193.39;;;10.22;67.90
42003;BME280;27693;50.506;30.832;2023-04-25T01:49:54;99191.85;;;10.18;68.59
42003;BME280;27693;50.506;30.832;2023-04-25T01:50:58;99195.55;;;10.14;69.46
42003;BME280;27693;50.506;30.832;2023-04-25T01:52:00;99192.18;;;10.12;69.00
42003;BME280;27693;50.506;30.832;2023-04-25T01:53:02;99192.36;;;10.09;69.46
42003;BME280;27693;50.506;30.832;2023-04-25T01:54:05;99198.29;;;10.11;69.39
42003;BME280;27693;50.506;30.832;2023-04-25T01:55:09;99194.95;;;10.09;69.77
42003;BME280;27693;50.506;30.832;2023-04-25T01:56:14;99191.50;;;10.08;69.56
42003;BME280;27693;50.506;30.832;2023-04-25T01:57:17;99193.33;;;10.06;69.67
42003;BME280;27693;50.506;30.832;2023-04-25T01:58:19;99192.64;;;10.02;69.74
42003;BME280;27693;50.506;30.832;2023-04-25T01:59:24;99189.13;;;10.03;69.71
42003;BME280;27693;50.506;30.832;2023-04-25T02:00:29;99187.30;;;10.05;69.23
42003;BME280;27693;50.506;30.832;2023-04-25T02:01:32;99192.83;;;9.99;69.98
42003;BME280;27693;50.506;30.832;2023-04-25T02:02:37;99188.62;;;9.97;70.11
42003;BME280;27693;50.506;30.832;2023-04-25T02:03:41;99192.97;;;9.96;69.98
42003;BME280;27693;50.506;30.832;2023-04-25T02:04:49;99187.77;;;9.96;69.91
42003;BME280;27693;50.506;30.832;2023-04-25T02:05:53;99189.62;;;9.94;70.04
42003;BME280;27693;50.506;30.832;2023-04-25T02:06:56;99184.44;;;9.94;70.03
42003;BME280;27693;50.506;30.832;2023-04-25T02:08:00;99184.34;;;9.96;69.72
42003;BME280;27693;50.506;30.832;2023-04-25T02:09:03;99184.34;;;9.96;69.65
42003;BME280;27693;50.506;30.832;2023-04-25T02:10:08;99190.13;;;10.01;69.73
42003;BME280;27693;50.506;30.832;2023-04-25T02:11:12;99180.75;;;9.98;69.78
42003;BME280;27693;50.506;30.832;2023-04-25T02:12:16;99185.17;;;9.96;69.89
42003;BME280;27693;50.506;30.832;2023-04-25T02:13:37;99186.95;;;9.96;69.87
42003;BME280;27693;50.506;30.832;2023-04-25T02:14:59;99180.92;;;9.95;69.62
42003;BME280;27693;50.506;30.832;2023-04-25T02:16:04;99184.58;;;9.91;70.26
42003;BME280;27693;50.506;30.832;2023-04-25T02:17:07;99184.58;;;9.91;70.26
42003;BME280;27693;50.506;30.832;2023-04-25T02:18:10;99179.84;;;9.82;70.47
42003;BME280;27693;50.506;30.832;2023-04-25T02:19:15;99178.19;;;9.81;70.52
42003;BME280;27693;50.506;30.832;2023-04-25T02:20:19;99179.84;;;9.82;70.65
42003;BME280;27693;50.506;30.832;2023-04-25T02:21:24;99177.11;;;9.85;70.50
42003;BME280;27693;50.506;30.832;2023-04-25T02:22:28;99175.87;;;9.92;70.29
42003;BME280;27693;50.506;30.832;2023-04-25T02:23:32;99167.93;;;9.95;70.34
42003;BME280;27693;50.506;30.832;2023-04-25T02:24:35;99178.91;;;10.00;70.31
42003;BME280;27693;50.506;30.832;2023-04-25T02:25:37;99170.02;;;10.04;70.21
42003;BME280;27693;50.506;30.832;2023-04-25T02:26:39;99163.67;;;10.10;70.51
42003;BME280;27693;50.506;30.832;2023-04-25T02:27:43;99171.23;;;10.15;70.65
42003;BME280;27693;50.506;30.832;2023-04-25T02:28:46;99167.39;;;10.22;70.58
42003;BME280;27693;50.506;30.832;2023-04-25T02:29:48;99161.01;;;10.28;70.47
42003;BME280;27693;50.506;30.832;2023-04-25T02:30:52;99165.05;;;10.33;70.52
42003;BME280;27693;50.506;30.832;2023-04-25T02:31:55;99168.27;;;10.38;70.24
42003;BME280;27693;50.506;30.832;2023-04-25T02:32:59;99166.25;;;10.44;70.07
42003;BME280;27693;50.506;30.832;2023-04-25T02:34:01;99159.20;;;10.46;69.62
42003;BME280;27693;50.506;30.832;2023-04-25T02:35:05;99169.37;;;10.50;69.64
42003;BME280;27693;50.506;30.832;2023-04-25T02:36:08;99164.94;;;10.52;68.70
42003;BME280;27693;50.506;30.832;2023-04-25T02:37:10;99169.95;;;10.39;68.37
42003;BME280;27693;50.506;30.832;2023-04-25T02:38:13;99167.80;;;10.30;68.59
42003;BME280;27693;50.506;30.832;2023-04-25T02:39:16;99168.89;;;10.26;68.25
42003;BME280;27693;50.506;30.832;2023-04-25T02:40:19;99169.05;;;10.23;68.53
42003;BME280;27693;50.506;30.832;2023-04-25T02:41:21;99161.34;;;10.21;67.98
42003;BME280;27693;50.506;30.832;2023-04-25T02:42:25;99168.37;;;10.19;67.72
42003;BME280;27693;50.506;30.832;2023-04-25T02:43:28;99162.52;;;10.16;67.44
42003;BME280;27693;50.506;30.832;2023-04-25T02:44:30;99160.90;;;10.13;67.26
42003;BME280;27693;50.506;30.832;2023-04-25T02:45:33;99170.62;;;10.10;67.14
42003;BME280;27693;50.506;30.832;2023-04-25T02:46:35;99170.88;;;10.05;67.83
42003;BME280;27693;50.506;30.832;2023-04-25T02:47:39;99171.86;;;10.02;67.98
42003;BME280;27693;50.506;30.832;2023-04-25T02:48:42;99164.33;;;9.98;68.91
42003;BME280;27693;50.506;30.832;2023-04-25T02:49:45;99168.66;;;9.97;68.93
42003;BME280;27693;50.506;30.832;2023-04-25T02:50:48;99174.04;;;9.94;68.76
42003;BME280;27693;50.506;30.832;2023-04-25T02:51:50;99170.67;;;9.92;68.72
42003;BME280;27693;50.506;30.832;2023-04-25T02:52:53;99165.62;;;9.89;69.22
42003;BME280;27693;50.506;30.832;2023-04-25T02:53:58;99174.36;;;9.88;68.86
42003;BME280;27693;50.506;30.832;2023-04-25T02:55:00;99165.88;;;9.84;69.68
42003;BME280;27693;50.506;30.832;2023-04-25T02:56:03;99166.80;;;9.83;69.89
42003;BME280;27693;50.506;30.832;2023-04-25T02:57:06;99157.41;;;9.81;69.84
42003;BME280;27693;50.506;30.832;2023-04-25T02:58:11;99166.94;;;9.80;69.76
42003;BME280;27693;50.506;30.832;2023-04-25T02:59:21;99165.75;;;9.70;70.58
42003;BME280;27693;50.506;30.832;2023-04-25T03:00:23;99164.89;;;9.69;70.42
42003;BME280;27693;50.506;30.832;2023-04-25T03:01:27;99163.06;;;9.71;70.29
42003;BME280;27693;50.506;30.832;2023-04-25T03:02:29;99164.89;;;9.69;70.46
42003;BME280;27693;50.506;30.832;2023-04-25T03:03:32;99167.66;;;9.66;70.91
42003;BME280;27693;50.506;30.832;2023-04-25T03:04:35;99167.58;;;9.68;71.00
42003;BME280;27693;50.506;30.832;2023-04-25T03:05:38;99171.63;;;9.73;70.94
42003;BME280;27693;50.506;30.832;2023-04-25T03:06:41;99170.54;;;9.78;70.66
42003;BME280;27693;50.506;30.832;2023-04-25T03:07:44;99162.60;;;9.81;70.21
42003;BME280;27693;50.506;30.832;2023-04-25T03:08:47;99168.98;;;9.91;70.75
42003;BME280;27693;50.506;30.832;2023-04-25T03:09:49;99172.03;;;9.99;70.92
42003;BME280;27693;50.506;30.832;2023-04-25T03:10:52;99170.02;;;10.04;70.91
42003;BME280;27693;50.506;30.832;2023-04-25T03:11:56;99171.38;;;10.12;71.12
42003;BME280;27693;50.506;30.832;2023-04-25T03:12:58;99176.16;;;10.19;70.88
42003;BME280;27693;50.506;30.832;2023-04-25T03:14:01;99166.30;;;10.26;70.57
42003;BME280;27693;50.506;30.832;2023-04-25T03:15:04;99170.39;;;10.30;69.44
42003;BME280;27693;50.506;30.832;2023-04-25T03:16:06;99168.75;;;10.29;68.89
42003;BME280;27693;50.506;30.832;2023-04-25T03:17:09;99170.25;;;10.33;68.88
42003;BME280;27693;50.506;30.832;2023-04-25T03:18:13;99175.33;;;10.36;68.93
42003;BME280;27693;50.506;30.832;2023-04-25T03:19:15;99164.93;;;10.36;68.66
42003;BME280;27693;50.506;30.832;2023-04-25T03:20:20;99175.45;;;10.33;68.23
42003;BME280;27693;50.506;30.832;2023-04-25T03:21:24;99168.13;;;10.24;68.11
42003;BME280;27693;50.506;30.832;2023-04-25T03:22:27;99168.13;;;10.24;68.11
42003;BME280;27693;50.506;30.832;2023-04-25T03:23:29;99165.70;;;10.21;68.20
42003;BME280;27693;50.506;30.832;2023-04-25T03:24:32;99169.38;;;10.17;68.19
42003;BME280;27693;50.506;30.832;2023-04-25T03:25:35;99168.88;;;10.10;68.69
42003;BME280;27693;50.506;30.832;2023-04-25T03:26:39;99164.68;;;10.07;68.66
42003;BME280;27693;50.506;30.832;2023-04-25T03:27:41;99167.52;;;10.03;68.77
42003;BME280;27693;50.506;30.832;2023-04-25T03:28:44;99170.02;;;10.04;68.68
42003;BME280;27693;50.506;30.832;2023-04-25T03:29:47;99168.34;;;10.03;68.42
42003;BME280;27693;50.506;30.832;2023-04-25T03:30:49;99175.41;;;10.01;68.49
42003;BME280;27693;50.506;30.832;2023-04-25T03:31:52;99166.84;;;9.99;68.80
42003;BME280;27693;50.506;30.832;2023-04-25T03:32:54;99171.44;;;9.94;69.43
42003;BME280;27693;50.506;30.832;2023-04-25T03:33:57;99174.04;;;9.94;69.12
42003;BME280;27693;50.506;30.832;2023-04-25T03:35:00;99172.36;;;9.93;69.31
42003;BME280;27693;50.506;30.832;2023-04-25T03:36:03;99179.55;;;9.88;69.64
42003;BME280;27693;50.506;30.832;2023-04-25T03:37:05;99172.67;;;9.87;69.73
42003;BME280;27693;50.506;30.832;2023-04-25T03:38:09;99173.59;;;9.86;69.50
42003;BME280;27693;50.506;30.832;2023-04-25T03:39:13;99175.42;;;9.84;69.97
42003;BME280;27693;50.506;30.832;2023-04-25T03:40:18;99172.67;;;9.87;69.47
42003;BME280;27693;50.506;30.832;2023-04-25T03:41:40;99176.19;;;9.86;69.51
42003;BME280;27693;50.506;30.832;2023-04-25T03:42:44;99174.82;;;9.79;70.03
42003;BME280;27693;50.506;30.832;2023-04-25T03:43:47;99179.25;;;9.77;70.17
42003;BME280;27693;50.506;30.832;2023-04-25T03:44:51;99179.19;;;9.78;69.97
42003;BME280;27693;50.506;30.832;2023-04-25T03:45:56;99179.02;;;9.81;69.69
42003;BME280;27693;50.506;30.832;2023-04-25T03:47:00;99178.87;;;9.84;69.47
42003;BME280;27693;50.506;30.832;2023-04-25T03:48:04;99180.47;;;9.87;69.11
42003;BME280;27693;50.506;30.832;2023-04-25T03:49:07;99182.06;;;9.89;68.85
42003;BME280;27693;50.506;30.832;2023-04-25T03:50:20;99180.30;;;9.90;68.70
42003;BME280;27693;50.506;30.832;2023-04-25T03:51:23;99183.07;;;9.87;69.39
42003;BME280;27693;50.506;30.832;2023-04-25T03:52:26;99179.70;;;9.85;69.67
42003;BME280;27693;50.506;30.832;2023-04-25T03:53:29;99181.20;;;9.89;69.57
42003;BME280;27693;50.506;30.832;2023-04-25T03:54:39;99181.20;;;9.89;69.53
42003;BME280;27693;50.506;30.832;2023-04-25T03:55:46;99178.19;;;9.81;70.17
42003;BME280;27693;50.506;30.832;2023-04-25T03:56:49;99178.33;;;9.78;70.42
42003;BME280;27693;50.506;30.832;2023-04-25T03:57:53;99180.79;;;9.81;70.26
42003;BME280;27693;50.506;30.832;2023-04-25T03:58:57;99176.33;;;9.83;70.00
42003;BME280;27693;50.506;30.832;2023-04-25T04:00:00;99181.53;;;9.83;70.23
42003;BME280;27693;50.506;30.832;2023-04-25T04:01:04;99178.25;;;9.79;70.74
42003;BME280;27693;50.506;30.832;2023-04-25T04:02:10;99178.87;;;9.84;70.76
42003;BME280;27693;50.506;30.832;2023-04-25T04:03:13;99179.55;;;9.88;70.56
42003;BME280;27693;50.506;30.832;2023-04-25T04:04:16;99170.53;;;9.95;70.48
42003;BME280;27693;50.506;30.832;2023-04-25T04:05:20;99173.72;;;10.00;70.35
42003;BME280;27693;50.506;30.832;2023-04-25T04:06:25;99173.39;;;10.06;70.45
42003;BME280;27693;50.506;30.832;2023-04-25T04:07:30;99164.45;;;10.12;70.53
42003;BME280;27693;50.506;30.832;2023-04-25T04:08:35;99173.51;;;10.21;70.67
42003;BME280;27693;50.506;30.832;2023-04-25T04:09:38;99167.63;;;10.17;69.71
42003;BME280;27693;50.506;30.832;2023-04-25T04:10:42;99164.70;;;10.23;69.67
42003;BME280;27693;50.506;30.832;2023-04-25T04:11:45;99173.33;;;10.24;69.57
42003;BME280;27693;50.506;30.832;2023-04-25T04:12:47;99172.27;;;10.28;69.32
42003;BME280;27693;50.506;30.832;2023-04-25T04:13:49;99169.48;;;10.31;69.08
42003;BME280;27693;50.506;30.832;2023-04-25T04:14:52;99175.54;;;10.32;68.77
42003;BME280;27693;50.506;30.832;2023-04-25T04:15:55;99176.45;;;10.31;68.79
42003;BME280;27693;50.506;30.832;2023-04-25T04:16:59;99172.27;;;10.28;68.76
42003;BME280;27693;50.506;30.832;2023-04-25T04:18:03;99170.58;;;10.27;68.82
42003;BME280;27693;50.506;30.832;2023-04-25T04:19:06;99178.62;;;10.22;68.98
42003;BME280;27693;50.506;30.832;2023-04-25T04:20:10;99174.24;;;10.23;68.89
42003;BME280;27693;50.506;30.832;2023-04-25T04:21:14;99181.12;;;10.24;68.78
42003;BME280;27693;50.506;30.832;2023-04-25T04:22:17;99181.12;;;10.24;68.73
42003;BME280;27693;50.506;30.832;2023-04-25T04:23:21;99178.13;;;10.16;69.33
42003;BME280;27693;50.506;30.832;2023-04-25T04:24:26;99175.66;;;10.13;69.55
42003;BME280;27693;50.506;30.832;2023-04-25T04:25:34;99180.09;;;10.11;69.50
42003;BME280;27693;50.506;30.832;2023-04-25T04:26:42;99177.50;;;10.11;69.71
42003;BME280;27693;50.506;30.832;2023-04-25T04:27:48;99175.08;;;10.07;69.85
42003;BME280;27693;50.506;30.832;2023-04-25T04:28:55;99167.34;;;10.06;70.03
42003;BME280;27693;50.506;30.832;2023-04-25T04:30:09;99174.98;;;10.09;69.94
42003;BME280;27693;50.506;30.832;2023-04-25T04:31:13;99167.34;;;10.06;70.28
42003;BME280;27693;50.506;30.832;2023-04-25T04:32:19;99165.69;;;10.05;70.36
42003;BME280;27693;50.506;30.832;2023-04-25T04:33:22;99173.39;;;10.06;70.30
42003;BME280;27693;50.506;30.832;2023-04-25T04:34:27;99164.50;;;10.11;70.16
42003;BME280;27693;50.506;30.832;2023-04-25T04:35:29;99164.35;;;10.14;70.22
42003;BME280;27693;50.506;30.832;2023-04-25T04:36:32;99149.52;;;10.16;70.47
42003;BME280;27693;50.506;30.832;2023-04-25T04:37:34;99162.10;;;10.23;70.33
42003;BME280;27693;50.506;30.832;2023-04-25T04:38:37;99152.97;;;10.32;70.67
42003;BME280;27693;50.506;30.832;2023-04-25T04:39:42;99153.33;;;10.42;71.04
42003;BME280;27693;50.506;30.832;2023-04-25T04:40:53;99158.20;;;10.48;70.79
42003;BME280;27693;50.506;30.832;2023-04-25T04:41:57;99152.17;;;10.48;69.95
42003;BME280;27693;50.506;30.832;2023-04-25T04:43:05;99146.97;;;10.48;69.78
42003;BME280;27693;50.506;30.832;2023-04-25T04:44:12;99154.34;;;10.55;69.59
42003;BME280;27693;50.506;30.832;2023-04-25T04:45:24;99148.30;;;10.71;69.25
42003;BME280;27693;50.506;30.832;2023-04-25T04:46:38;99154.09;;;10.60;69.24
42003;BME280;27693;50.506;30.832;2023-04-25T04:47:54;99150.67;;;10.60;69.39
42003;BME280;27693;50.506;30.832;2023-04-25T04:49:05;99142.09;;;10.74;68.99
42003;BME280;27693;50.506;30.832;2023-04-25T04:50:15;99146.14;;;10.63;68.83
42003;BME280;27693;50.506;30.832;2023-04-25T04:51:37;99145.13;;;10.66;69.11
42003;BME280;27693;50.506;30.832;2023-04-25T04:52:57;99146.14;;;10.63;69.16
42003;BME280;27693;50.506;30.832;2023-04-25T04:54:01;99148.45;;;10.68;68.76
42003;BME280;27693;50.506;30.832;2023-04-25T04:55:10;99146.05;;;10.65;69.22
42003;BME280;27693;50.506;30.832;2023-04-25T04:56:26;99158.04;;;10.67;68.87
42003;BME280;27693;50.506;30.832;2023-04-25T04:57:32;99147.48;;;10.70;68.63
42003;BME280;27693;50.506;30.832;2023-04-25T04:58:39;99156.36;;;10.66;69.42
42003;BME280;27693;50.506;30.832;2023-04-25T04:59:52;99154.52;;;10.68;69.80
42003;BME280;27693;50.506;30.832;2023-04-25T05:01:12;99147.63;;;10.67;69.65
42003;BME280;27693;50.506;30.832;2023-04-25T05:02:33;99147.48;;;10.70;69.95
42003;BME280;27693;50.506;30.832;2023-04-25T05:03:37;99149.66;;;10.62;70.37
42003;BME280;27693;50.506;30.832;2023-04-25T05:04:48;99154.67;;;10.65;70.17
42003;BME280;27693;50.506;30.832;2023-04-25T05:05:57;99158.04;;;10.67;70.22
42003;BME280;27693;50.506;30.832;2023-04-25T05:07:13;99157.20;;;10.83;70.51
42003;BME280;27693;50.506;30.832;2023-04-25T05:08:18;99158.37;;;10.77;70.64
42003;BME280;27693;50.506;30.832;2023-04-25T05:09:40;99153.83;;;10.81;70.51
42003;BME280;27693;50.506;30.832;2023-04-25T05:10:54;99157.20;;;10.83;70.60
42003;BME280;27693;50.506;30.832;2023-04-25T05:12:01;99160.28;;;10.90;70.60
42003;BME280;27693;50.506;30.832;2023-04-25T05:13:06;99151.30;;;10.95;70.77
42003;BME280;27693;50.506;30.832;2023-04-25T05:14:27;99155.39;;;10.99;70.63
42003;BME280;27693;50.506;30.832;2023-04-25T05:15:39;99157.38;;;11.10;70.55
42003;BME280;27693;50.506;30.832;2023-04-25T05:16:53;99159.02;;;11.27;70.18
42003;BME280;27693;50.506;30.832;2023-04-25T05:18:00;99164.84;;;11.16;69.91
42003;BME280;27693;50.506;30.832;2023-04-25T05:19:08;99150.38;;;11.27;69.51
42003;BME280;27693;50.506;30.832;2023-04-25T05:20:18;99155.19;;;11.18;69.83
42003;BME280;27693;50.506;30.832;2023-04-25T05:21:39;99158.45;;;11.22;69.89
42003;BME280;27693;50.506;30.832;2023-04-25T05:23:00;99152.89;;;11.28;69.75
42003;BME280;27693;50.506;30.832;2023-04-25T05:24:10;99150.84;;;11.33;69.35
42003;BME280;27693;50.506;30.832;2023-04-25T05:25:20;99149.00;;;11.35;68.97
42003;BME280;27693;50.506;30.832;2023-04-25T05:26:30;99145.11;;;11.43;69.61
42003;BME280;27693;50.506;30.832;2023-04-25T05:27:51;99148.70;;;11.26;69.83
42003;BME280;27693;50.506;30.832;2023-04-25T05:28:59;99150.13;;;11.31;69.67
42003;BME280;27693;50.506;30.832;2023-04-25T05:30:05;99147.33;;;11.34;69.37
42003;BME280;27693;50.506;30.832;2023-04-25T05:31:27;99151.05;;;11.30;69.75
42003;BME280;27693;50.506;30.832;2023-04-25T05:32:35;99143.98;;;11.32;69.90
42003;BME280;27693;50.506;30.832;2023-04-25T05:33:38;99138.95;;;11.29;69.99
42003;BME280;27693;50.506;30.832;2023-04-25T05:34:40;99148.24;;;11.33;69.63
42003;BME280;27693;50.506;30.832;2023-04-25T05:35:46;99148.17;;;11.35;69.86
42003;BME280;27693;50.506;30.832;2023-04-25T05:36:49;99147.88;;;11.40;69.94
42003;BME280;27693;50.506;30.832;2023-04-25T05:37:52;99143.53;;;11.40;69.79
42003;BME280;27693;50.506;30.832;2023-04-25T05:38:57;99145.11;;;11.43;69.90
42003;BME280;27693;50.506;30.832;2023-04-25T05:40:05;99147.55;;;11.46;69.91